createdAt,value
2017-09-07T00:01:03.168Z,62.12
2017-09-07T00:03:29.987Z,62.26
2017-09-07T00:05:56.071Z,62.34
2017-09-07T00:08:22.182Z,62.78
2017-09-07T00:10:49.010Z,62.74
2017-09-07T00:13:15.127Z,63.27
2017-09-07T00:15:41.220Z,63.66
2017-09-07T00:18:07.324Z,63.53
2017-09-07T00:20:33.874Z,63.16
2017-09-07T00:22:59.981Z,63.45
2017-09-07T00:25:26.081Z,63.67
2017-09-07T00:27:52.171Z,63.83
2017-09-07T00:30:19.179Z,64.26
2017-09-07T00:32:46.338Z,64.86
2017-09-07T00:35:12.395Z,64.92
2017-09-07T00:37:38.511Z,65.03
2017-09-07T00:40:04.662Z,64.93
2017-09-07T00:42:30.735Z,64.85
2017-09-07T00:44:56.860Z,64.93
2017-09-07T00:47:22.955Z,64.86
2017-09-07T00:49:49.027Z,65.08
2017-09-07T00:52:15.100Z,64.84
2017-09-07T00:54:41.187Z,64.31
2017-09-07T00:57:07.310Z,64.39
2017-09-07T00:59:33.375Z,63.76
2017-09-07T01:01:59.487Z,63.72
2017-09-07T01:04:25.544Z,63.89
2017-09-07T01:06:52.388Z,63.02
2017-09-07T01:09:19.205Z,62.95
2017-09-07T01:11:45.290Z,62.85
2017-09-07T01:14:11.409Z,62.69
2017-09-07T01:16:37.493Z,61.95
2017-09-07T01:19:03.590Z,61.67
2017-09-07T01:21:29.651Z,61.62
2017-09-07T01:23:56.517Z,61.54
2017-09-07T01:26:22.592Z,61.21
2017-09-07T01:28:48.654Z,61.10
2017-09-07T01:31:14.720Z,61.17
2017-09-07T01:33:40.788Z,61.47
2017-09-07T01:36:06.868Z,60.79
2017-09-07T01:38:32.966Z,60.69
2017-09-07T01:40:59.772Z,60.69
2017-09-07T01:43:25.838Z,60.37
2017-09-07T01:45:51.900Z,61.06
2017-09-07T01:48:36.647Z,61.11
2017-09-07T01:51:02.735Z,61.93
2017-09-07T01:53:29.525Z,61.82
2017-09-07T01:55:55.604Z,61.65
2017-09-07T01:58:22.432Z,61.94
2017-09-07T02:00:48.555Z,61.94
2017-09-07T02:03:15.380Z,62.11
2017-09-07T02:05:41.458Z,62.16
2017-09-07T02:08:07.585Z,62.20
2017-09-07T02:10:33.647Z,62.21
2017-09-07T02:12:59.729Z,62.35
2017-09-07T02:15:25.822Z,62.02
2017-09-07T02:17:51.905Z,62.58
2017-09-07T02:20:18.008Z,62.77
2017-09-07T02:22:44.823Z,62.64
2017-09-07T02:25:10.940Z,62.47
2017-09-07T02:27:37.036Z,62.35
2017-09-07T02:30:09.979Z,63.32
2017-09-07T02:32:36.801Z,63.82
2017-09-07T02:35:02.873Z,63.18
2017-09-07T02:37:28.967Z,62.98
2017-09-07T02:39:55.826Z,63.38
2017-09-07T02:42:21.943Z,63.31
2017-09-07T02:44:48.770Z,62.97
2017-09-07T02:47:14.804Z,62.98
2017-09-07T02:49:40.912Z,63.15
2017-09-07T02:52:07.004Z,62.91
2017-09-07T02:54:33.048Z,62.83
2017-09-07T02:56:59.109Z,62.94
2017-09-07T02:59:25.188Z,63.16
2017-09-07T03:01:51.278Z,62.75
2017-09-07T03:04:17.627Z,62.94
2017-09-07T03:06:43.839Z,63.44
2017-09-07T03:09:09.917Z,63.50
2017-09-07T03:11:35.975Z,63.40
2017-09-07T03:14:02.801Z,63.29
2017-09-07T03:16:29.617Z,63.47
2017-09-07T03:18:55.752Z,63.35
2017-09-07T03:21:21.854Z,63.95
2017-09-07T03:23:48.092Z,64.19
2017-09-07T03:26:14.164Z,63.88
2017-09-07T03:28:40.958Z,64.29
2017-09-07T03:31:07.014Z,63.66
2017-09-07T03:33:33.838Z,63.17
2017-09-07T03:36:00.572Z,63.33
2017-09-07T03:38:26.624Z,62.89
2017-09-07T03:40:53.466Z,63.61
2017-09-07T03:43:20.289Z,63.25
2017-09-07T03:45:46.384Z,64.31
2017-09-07T03:48:12.464Z,63.77
2017-09-07T03:50:39.288Z,64.28
2017-09-07T03:53:05.410Z,64.56
2017-09-07T03:55:31.542Z,64.40
2017-09-07T03:57:57.668Z,64.40
2017-09-07T04:00:23.758Z,64.00
2017-09-07T04:02:49.884Z,63.85
2017-09-07T04:05:16.013Z,64.21
2017-09-07T04:07:42.084Z,63.26
2017-09-07T04:10:08.209Z,64.13
2017-09-07T04:12:34.312Z,64.68
2017-09-07T04:15:00.398Z,63.55
2017-09-07T04:17:26.468Z,62.86
2017-09-07T04:19:52.555Z,63.04
2017-09-07T04:22:18.616Z,63.08
2017-09-07T04:24:44.717Z,63.35
2017-09-07T04:27:10.829Z,63.10
2017-09-07T04:29:36.943Z,63.25
2017-09-07T04:32:03.040Z,63.31
2017-09-07T04:34:29.880Z,63.18
2017-09-07T04:36:56.027Z,62.22
2017-09-07T04:39:22.132Z,63.14
2017-09-07T04:41:48.214Z,62.66
2017-09-07T04:44:14.342Z,62.11
2017-09-07T04:46:40.413Z,62.47
2017-09-07T04:49:07.229Z,62.07
2017-09-07T04:51:33.333Z,61.92
2017-09-07T04:53:59.454Z,62.54
2017-09-07T04:56:25.517Z,62.91
2017-09-07T04:58:51.627Z,63.01
2017-09-07T05:01:17.721Z,62.83
2017-09-07T05:03:43.799Z,62.49
2017-09-07T05:06:09.877Z,61.85
2017-09-07T05:08:35.985Z,62.46
2017-09-07T05:11:02.130Z,62.56
2017-09-07T05:13:28.284Z,61.83
2017-09-07T05:15:54.383Z,61.52
2017-09-07T05:18:20.483Z,62.02
2017-09-07T05:20:47.321Z,61.28
2017-09-07T05:23:14.583Z,61.08
2017-09-07T05:25:40.662Z,61.27
2017-09-07T05:28:06.747Z,61.38
2017-09-07T05:30:32.808Z,61.04
2017-09-07T05:32:59.901Z,61.39
2017-09-07T05:35:26.746Z,61.45
2017-09-07T05:37:53.602Z,61.53
2017-09-07T05:40:19.721Z,61.35
2017-09-07T05:42:46.560Z,60.90
2017-09-07T05:45:14.070Z,61.19
2017-09-07T05:47:40.252Z,60.96
2017-09-07T05:50:06.360Z,61.24
2017-09-07T05:52:33.188Z,61.18
2017-09-07T05:54:59.292Z,61.88
2017-09-07T05:57:25.396Z,61.46
2017-09-07T05:59:51.499Z,61.38
2017-09-07T06:02:18.340Z,60.78
2017-09-07T06:04:44.416Z,60.46
2017-09-07T06:07:10.528Z,60.65
2017-09-07T06:09:36.607Z,60.96
2017-09-07T06:12:04.165Z,61.41
2017-09-07T06:14:31.229Z,61.28
2017-09-07T06:16:57.352Z,60.55
2017-09-07T06:19:23.457Z,60.01
2017-09-07T06:21:49.612Z,59.74
2017-09-07T06:24:15.730Z,59.48
2017-09-07T06:26:41.865Z,59.64
2017-09-07T06:29:07.961Z,59.93
2017-09-07T06:31:34.042Z,59.91
2017-09-07T06:34:00.185Z,60.19
2017-09-07T06:36:26.320Z,59.22
2017-09-07T06:38:52.369Z,58.49
2017-09-07T06:41:19.257Z,57.89
2017-09-07T06:43:45.341Z,58.66
2017-09-07T06:46:12.189Z,58.14
2017-09-07T06:48:39.061Z,57.48
2017-09-07T06:51:05.146Z,57.93
2017-09-07T06:53:31.278Z,57.26
2017-09-07T06:55:58.111Z,58.16
2017-09-07T06:58:24.214Z,58.46
2017-09-07T07:00:50.299Z,58.00
2017-09-07T07:03:16.401Z,59.23
2017-09-07T07:05:43.220Z,59.16
2017-09-07T07:08:09.328Z,58.14
2017-09-07T07:10:35.392Z,57.67
2017-09-07T07:13:02.228Z,56.72
2017-09-07T07:15:28.335Z,55.94
2017-09-07T07:17:54.424Z,56.75
2017-09-07T07:20:20.528Z,55.99
2017-09-07T07:22:46.633Z,55.57
2017-09-07T07:25:12.736Z,54.78
2017-09-07T07:27:38.840Z,54.79
2017-09-07T07:30:04.972Z,54.02
2017-09-07T07:32:31.056Z,55.15
2017-09-07T07:34:57.896Z,54.13
2017-09-07T07:37:24.000Z,54.14
2017-09-07T07:39:50.144Z,53.20
2017-09-07T07:42:16.997Z,54.09
2017-09-07T07:44:43.834Z,55.21
2017-09-07T07:47:09.940Z,53.72
2017-09-07T07:49:36.025Z,53.06
2017-09-07T07:52:02.120Z,53.81
2017-09-07T07:54:28.219Z,53.46
2017-09-07T07:56:55.042Z,54.38
2017-09-07T07:59:21.204Z,55.99
2017-09-07T08:01:48.019Z,55.55
2017-09-07T08:04:14.091Z,54.41
2017-09-07T08:06:40.205Z,54.46
2017-09-07T08:09:07.065Z,55.52
2017-09-07T08:11:33.176Z,56.84
2017-09-07T08:14:00.033Z,58.70
2017-09-07T08:16:26.110Z,57.31
2017-09-07T08:18:52.253Z,59.18
2017-09-07T08:21:18.355Z,60.09
2017-09-07T08:23:44.495Z,62.07
2017-09-07T08:26:10.602Z,63.67
2017-09-07T08:28:36.709Z,62.72
2017-09-07T08:31:02.844Z,63.12
2017-09-07T08:33:28.899Z,61.34
2017-09-07T08:35:54.953Z,60.96
2017-09-07T08:38:21.796Z,62.12
2017-09-07T08:40:48.626Z,61.51
2017-09-07T08:43:22.480Z,60.54
2017-09-07T08:45:48.568Z,60.75
2017-09-07T08:48:15.415Z,60.33
2017-09-07T08:50:42.237Z,59.82
2017-09-07T08:53:09.069Z,59.52
2017-09-07T08:55:35.143Z,58.15
2017-09-07T08:58:01.230Z,56.95
2017-09-07T09:00:27.585Z,56.12
2017-09-07T09:02:53.683Z,55.98
2017-09-07T09:05:19.845Z,56.64
2017-09-07T09:07:45.949Z,56.17
2017-09-07T09:10:12.777Z,54.34
2017-09-07T09:12:38.885Z,53.54
2017-09-07T09:15:04.939Z,53.61
2017-09-07T09:17:31.806Z,52.16
2017-09-07T09:19:57.938Z,50.95
2017-09-07T09:22:24.021Z,53.29
2017-09-07T09:24:50.079Z,51.90
2017-09-07T09:27:16.892Z,53.67
2017-09-07T09:29:43.278Z,52.62
2017-09-07T09:32:09.413Z,53.67
2017-09-07T09:34:35.492Z,54.34
2017-09-07T09:37:02.349Z,53.42
2017-09-07T09:39:28.444Z,52.54
2017-09-07T09:41:54.528Z,54.43
2017-09-07T09:44:20.636Z,53.48
2017-09-07T09:46:46.728Z,53.56
2017-09-07T09:49:12.828Z,50.91
2017-09-07T09:51:38.968Z,50.91
2017-09-07T09:54:05.485Z,50.56
2017-09-07T09:56:38.605Z,51.27
2017-09-07T09:59:05.439Z,52.44
2017-09-07T10:01:31.524Z,51.23
2017-09-07T10:03:57.601Z,49.16
2017-09-07T10:06:23.713Z,48.20
2017-09-07T10:08:49.847Z,49.07
2017-09-07T10:11:15.936Z,48.71
2017-09-07T10:13:42.028Z,49.33
2017-09-07T10:16:08.102Z,47.46
2017-09-07T10:18:34.229Z,47.15
2017-09-07T10:21:00.371Z,47.51
2017-09-07T10:23:26.498Z,46.34
2017-09-07T10:25:52.620Z,47.04
2017-09-07T10:28:18.773Z,47.45
2017-09-07T10:30:45.599Z,48.88
2017-09-07T10:33:11.926Z,51.48
2017-09-07T10:35:37.976Z,51.94
2017-09-07T10:38:04.823Z,50.10
2017-09-07T10:40:31.660Z,49.33
2017-09-07T10:42:58.482Z,46.50
2017-09-07T10:45:25.308Z,48.64
2017-09-07T10:47:51.432Z,47.38
2017-09-07T10:50:17.532Z,49.42
2017-09-07T10:52:43.693Z,48.45
2017-09-07T10:55:09.794Z,49.29
2017-09-07T10:57:35.861Z,49.78
2017-09-07T11:00:01.964Z,48.57
2017-09-07T11:02:28.040Z,46.23
2017-09-07T11:04:54.129Z,45.65
2017-09-07T11:07:20.202Z,47.93
2017-09-07T11:09:46.308Z,46.26
2017-09-07T11:12:13.171Z,45.63
2017-09-07T11:14:39.258Z,47.26
2017-09-07T11:17:06.062Z,44.67
2017-09-07T11:19:32.193Z,44.91
2017-09-07T11:21:58.284Z,46.30
2017-09-07T11:24:24.352Z,47.19
2017-09-07T11:26:50.412Z,48.64
2017-09-07T11:29:17.276Z,51.12
2017-09-07T11:31:43.380Z,48.95
2017-09-07T11:34:10.293Z,49.00
2017-09-07T11:36:37.292Z,49.64
2017-09-07T11:39:03.364Z,49.12
2017-09-07T11:41:30.209Z,51.40
2017-09-07T11:43:56.313Z,50.55
2017-09-07T11:46:22.421Z,51.55
2017-09-07T11:48:49.493Z,49.83
2017-09-07T11:51:15.587Z,47.62
2017-09-07T11:53:41.686Z,47.29
2017-09-07T11:56:08.507Z,46.69
2017-09-07T11:58:34.627Z,47.61
2017-09-07T12:01:00.717Z,47.92
2017-09-07T12:03:26.795Z,47.42
2017-09-07T12:05:52.890Z,47.32
2017-09-07T12:08:18.965Z,47.52
2017-09-07T12:10:45.789Z,47.43
2017-09-07T12:13:11.941Z,48.40
2017-09-07T12:15:38.750Z,47.30
2017-09-07T12:18:04.843Z,42.46
2017-09-07T12:20:30.935Z,42.59
2017-09-07T12:22:57.739Z,38.90
2017-09-07T12:25:23.824Z,33.75
2017-09-07T12:27:49.902Z,33.36
2017-09-07T12:30:15.977Z,32.42
2017-09-07T12:32:42.099Z,27.32
2017-09-07T12:35:08.191Z,27.41
2017-09-07T12:37:34.271Z,27.86
2017-09-07T12:40:00.378Z,26.19
2017-09-07T12:42:26.478Z,28.41
2017-09-07T12:44:53.320Z,26.47
2017-09-07T12:47:20.199Z,25.30
2017-09-07T12:49:46.304Z,27.89
2017-09-07T12:52:13.225Z,23.79
2017-09-07T12:54:39.280Z,23.61
2017-09-07T12:57:06.208Z,25.57
2017-09-07T12:59:33.505Z,28.30
2017-09-07T13:01:59.614Z,28.22
2017-09-07T13:04:25.738Z,25.97
2017-09-07T13:06:51.828Z,26.81
2017-09-07T13:09:18.669Z,28.56
2017-09-07T13:11:44.764Z,29.69
2017-09-07T13:14:10.837Z,28.02
2017-09-07T13:16:37.660Z,27.86
2017-09-07T13:19:03.784Z,26.23
2017-09-07T13:21:30.609Z,27.64
2017-09-07T13:23:56.684Z,28.28
2017-09-07T13:26:22.781Z,29.43
2017-09-07T13:28:48.845Z,29.88
2017-09-07T13:31:14.915Z,26.24
2017-09-07T13:33:40.985Z,24.76
2017-09-07T13:36:07.108Z,25.27
2017-09-07T13:38:33.953Z,24.86
2017-09-07T13:41:00.777Z,25.30
2017-09-07T13:43:27.623Z,21.96
2017-09-07T13:45:58.464Z,19.47
2017-09-07T13:48:24.595Z,20.12
2017-09-07T13:50:51.418Z,21.21
2017-09-07T13:53:17.494Z,19.46
2017-09-07T13:55:43.626Z,20.16
2017-09-07T13:58:09.708Z,22.19
2017-09-07T14:00:36.544Z,23.01
2017-09-07T14:03:03.364Z,23.35
2017-09-07T14:05:29.517Z,23.66
2017-09-07T14:07:56.353Z,21.50
2017-09-07T14:10:23.207Z,22.38
2017-09-07T14:12:50.070Z,26.34
2017-09-07T14:15:16.128Z,26.16
2017-09-07T14:17:42.212Z,23.83
2017-09-07T14:20:09.056Z,25.66
2017-09-07T14:22:35.141Z,27.26
2017-09-07T14:25:01.184Z,28.95
2017-09-07T14:27:28.049Z,29.96
2017-09-07T14:29:54.132Z,27.29
2017-09-07T14:32:20.275Z,25.09
2017-09-07T14:34:47.225Z,22.23
2017-09-07T14:37:13.293Z,20.09
2017-09-07T14:39:39.382Z,20.24
2017-09-07T14:42:06.237Z,20.55
2017-09-07T14:44:33.059Z,26.77
2017-09-07T14:46:59.133Z,32.89
2017-09-07T14:49:25.295Z,35.08
2017-09-07T14:51:51.373Z,36.07
2017-09-07T14:54:17.445Z,37.69
2017-09-07T14:56:45.640Z,38.95
2017-09-07T14:59:11.735Z,38.40
2017-09-07T15:01:37.804Z,40.51
2017-09-07T15:04:04.648Z,39.52
2017-09-07T15:06:31.464Z,40.40
2017-09-07T15:08:57.886Z,39.99
2017-09-07T15:11:23.960Z,42.04
2017-09-07T15:13:50.036Z,41.91
2017-09-07T15:16:16.194Z,41.35
2017-09-07T15:18:43.035Z,40.97
2017-09-07T15:21:09.879Z,40.61
2017-09-07T15:23:36.771Z,40.32
2017-09-07T15:26:02.849Z,41.18
2017-09-07T15:28:29.730Z,41.88
2017-09-07T15:30:55.831Z,38.62
2017-09-07T15:33:23.523Z,32.47
2017-09-07T15:35:49.735Z,27.00
2017-09-07T15:38:15.857Z,27.74
2017-09-07T15:40:41.965Z,25.77
2017-09-07T15:43:08.799Z,21.70
2017-09-07T15:45:35.793Z,22.24
2017-09-07T15:48:01.889Z,22.14
2017-09-07T15:50:28.719Z,22.90
2017-09-07T15:52:55.546Z,21.88
2017-09-07T15:55:21.628Z,22.95
2017-09-07T15:57:47.776Z,26.15
2017-09-07T16:00:20.974Z,30.02
2017-09-07T16:02:47.057Z,31.36
2017-09-07T16:05:13.164Z,33.47
2017-09-07T16:07:40.008Z,37.19
2017-09-07T16:10:06.847Z,38.63
2017-09-07T16:12:33.720Z,38.70
2017-09-07T16:14:59.931Z,40.58
2017-09-07T16:17:26.760Z,40.27
2017-09-07T16:19:52.853Z,34.34
2017-09-07T16:22:19.137Z,34.56
2017-09-07T16:24:45.306Z,35.75
2017-09-07T16:27:11.513Z,36.44
2017-09-07T16:29:37.651Z,39.07
2017-09-07T16:32:03.777Z,41.68
2017-09-07T16:34:29.973Z,42.86
2017-09-07T16:36:56.079Z,43.01
2017-09-07T16:39:23.326Z,42.39
2017-09-07T16:41:50.139Z,43.00
2017-09-07T16:44:16.264Z,42.14
2017-09-07T16:46:42.372Z,42.60
2017-09-07T16:49:08.445Z,43.40
2017-09-07T16:51:34.552Z,43.83
2017-09-07T16:54:00.636Z,44.88
2017-09-07T16:56:26.751Z,44.23
2017-09-07T16:58:52.840Z,44.76
2017-09-07T17:01:18.960Z,45.43
2017-09-07T17:03:45.058Z,46.49
2017-09-07T17:06:11.178Z,46.87
2017-09-07T17:08:37.294Z,47.56
2017-09-07T17:11:03.393Z,47.23
2017-09-07T17:13:30.248Z,46.86
2017-09-07T17:15:56.348Z,47.17
2017-09-07T17:18:22.456Z,46.89
2017-09-07T17:20:48.609Z,47.20
2017-09-07T17:23:15.482Z,47.91
2017-09-07T17:25:41.588Z,48.14
2017-09-07T17:28:08.416Z,48.14
2017-09-07T17:30:34.480Z,48.45
2017-09-07T17:33:00.567Z,48.79
2017-09-07T17:35:27.479Z,48.71
2017-09-07T17:37:53.590Z,49.28
2017-09-07T17:40:19.730Z,49.25
2017-09-07T17:42:45.886Z,49.73
2017-09-07T17:45:27.750Z,49.72
2017-09-07T17:47:54.109Z,50.01
2017-09-07T17:50:20.205Z,50.07
2017-09-07T17:52:46.294Z,50.19
2017-09-07T17:55:12.390Z,51.00
2017-09-07T17:57:38.464Z,51.83
2017-09-07T18:00:04.609Z,52.33
2017-09-07T18:02:30.735Z,52.28
2017-09-07T18:04:56.835Z,52.70
2017-09-07T18:07:22.981Z,52.56
2017-09-07T18:09:49.220Z,52.77
2017-09-07T18:12:15.357Z,52.93
2017-09-07T18:14:41.524Z,53.03
2017-09-07T18:17:07.647Z,53.70
2017-09-07T18:19:34.489Z,53.46
2017-09-07T18:22:01.330Z,53.17
2017-09-07T18:24:27.439Z,53.05
2017-09-07T18:26:53.519Z,52.98
2017-09-07T18:29:19.625Z,52.99
2017-09-07T18:31:45.689Z,53.07
2017-09-07T18:34:11.795Z,53.84
2017-09-07T18:36:37.904Z,53.94
2017-09-07T18:39:03.987Z,54.02
2017-09-07T18:41:30.102Z,53.73
2017-09-07T18:43:56.258Z,53.97
2017-09-07T18:46:23.136Z,54.12
2017-09-07T18:48:49.261Z,54.36
2017-09-07T18:51:15.438Z,54.77
2017-09-07T18:53:43.050Z,55.39
2017-09-07T18:56:09.147Z,55.51
2017-09-07T18:58:36.023Z,55.68
2017-09-07T19:01:02.142Z,56.15
2017-09-07T19:03:28.264Z,56.45
2017-09-07T19:05:54.404Z,56.89
2017-09-07T19:08:20.574Z,57.32
2017-09-07T19:10:46.764Z,57.78
2017-09-07T19:13:12.874Z,58.17
2017-09-07T19:15:39.027Z,58.42
2017-09-07T19:18:05.158Z,58.63
2017-09-07T19:20:31.286Z,58.95
2017-09-07T19:22:58.108Z,59.58
2017-09-07T19:25:24.282Z,60.03
2017-09-07T19:27:51.108Z,60.19
2017-09-07T19:30:17.196Z,60.47
2017-09-07T19:32:43.292Z,60.97
2017-09-07T19:35:10.157Z,61.25
2017-09-07T19:37:37.071Z,61.51
2017-09-07T19:40:03.917Z,61.39
2017-09-07T19:42:30.815Z,61.51
2017-09-07T19:44:56.938Z,62.12
2017-09-07T19:47:23.131Z,62.54
2017-09-07T19:49:49.989Z,62.71
2017-09-07T19:52:16.374Z,62.63
2017-09-07T19:54:42.470Z,62.75
2017-09-07T19:57:08.549Z,62.99
2017-09-07T19:59:35.461Z,63.25
2017-09-07T20:02:01.665Z,63.17
2017-09-07T20:04:27.778Z,63.39
2017-09-07T20:06:53.910Z,63.72
2017-09-07T20:09:20.042Z,63.81
2017-09-07T20:11:46.146Z,63.68
2017-09-07T20:14:12.322Z,63.52
2017-09-07T20:16:38.401Z,63.21
2017-09-07T20:19:04.504Z,63.54
2017-09-07T20:21:31.356Z,63.65
2017-09-07T20:23:58.163Z,63.92
2017-09-07T20:26:24.243Z,64.04
2017-09-07T20:28:50.522Z,64.13
2017-09-07T20:31:16.663Z,64.12
2017-09-07T20:33:42.738Z,64.39
2017-09-07T20:36:08.845Z,64.68
2017-09-07T20:38:34.956Z,64.63
2017-09-07T20:41:01.775Z,64.87
2017-09-07T20:43:27.920Z,64.73
2017-09-07T20:45:54.744Z,64.85
2017-09-07T20:48:20.830Z,64.77
2017-09-07T20:50:47.024Z,64.88
2017-09-07T20:53:13.949Z,65.11
2017-09-07T20:55:40.059Z,64.73
2017-09-07T20:58:06.225Z,64.39
2017-09-07T21:00:33.050Z,64.48
2017-09-07T21:02:59.877Z,64.59
2017-09-07T21:05:25.958Z,64.60
2017-09-07T21:07:52.061Z,64.49
2017-09-07T21:10:18.924Z,64.74
2017-09-07T21:12:45.011Z,64.85
2017-09-07T21:15:11.125Z,65.17
2017-09-07T21:17:37.223Z,65.04
2017-09-07T21:20:03.308Z,65.01
2017-09-07T21:22:30.134Z,65.50
2017-09-07T21:24:56.216Z,65.36
2017-09-07T21:27:22.320Z,64.95
2017-09-07T21:29:48.417Z,64.79
2017-09-07T21:32:15.287Z,64.49
2017-09-07T21:34:41.416Z,64.31
2017-09-07T21:37:07.597Z,64.66
2017-09-07T21:39:33.720Z,63.95
2017-09-07T21:41:59.808Z,63.80
2017-09-07T21:44:25.891Z,63.42
2017-09-07T21:46:52.712Z,63.30
2017-09-07T21:49:18.841Z,63.20
2017-09-07T21:51:44.965Z,63.26
2017-09-07T21:54:11.129Z,63.33
2017-09-07T21:56:37.993Z,63.18
2017-09-07T21:59:04.326Z,63.62
2017-09-07T22:01:30.458Z,64.12
2017-09-07T22:03:56.563Z,64.33
2017-09-07T22:06:22.663Z,64.24
2017-09-07T22:08:49.503Z,64.60
2017-09-07T22:11:15.591Z,64.51
2017-09-07T22:13:41.643Z,64.64
2017-09-07T22:16:07.778Z,64.50
2017-09-07T22:18:33.917Z,64.68
2017-09-07T22:21:00.951Z,64.58
2017-09-07T22:23:27.036Z,64.45
2017-09-07T22:25:53.116Z,64.40
2017-09-07T22:28:19.962Z,64.89
2017-09-07T22:30:46.820Z,65.06
2017-09-07T22:33:12.909Z,65.30
2017-09-07T22:35:39.012Z,65.39
2017-09-07T22:38:05.072Z,65.83
2017-09-07T22:40:31.170Z,65.90
2017-09-07T22:42:57.253Z,66.07
2017-09-07T22:45:23.318Z,66.13
2017-09-07T22:47:49.414Z,66.10
2017-09-07T22:50:15.502Z,66.08
2017-09-07T22:52:42.355Z,65.87
2017-09-07T22:55:09.184Z,65.86
2017-09-07T22:57:35.279Z,65.51
2017-09-07T23:00:01.356Z,65.38
2017-09-07T23:02:28.178Z,65.22
2017-09-07T23:04:54.262Z,65.28
2017-09-07T23:07:20.316Z,65.65
2017-09-07T23:09:46.421Z,65.48
2017-09-07T23:12:12.516Z,65.74
2017-09-07T23:14:38.560Z,65.51
2017-09-07T23:17:04.673Z,65.43
2017-09-07T23:19:30.756Z,65.60
2017-09-07T23:21:56.822Z,65.74
2017-09-07T23:24:22.925Z,65.44
2017-09-07T23:26:49.759Z,65.05
2017-09-07T23:29:16.552Z,64.62
2017-09-07T23:31:42.636Z,64.77
2017-09-07T23:34:08.753Z,64.18
2017-09-07T23:36:35.562Z,63.60
2017-09-07T23:39:01.897Z,63.34
2017-09-07T23:41:27.962Z,62.90
2017-09-07T23:43:54.013Z,62.58
2017-09-07T23:46:20.093Z,62.37
2017-09-07T23:48:46.173Z,62.44
2017-09-07T23:51:12.254Z,62.05
2017-09-07T23:53:39.083Z,61.77
2017-09-07T23:56:05.169Z,61.79
2017-09-07T23:58:31.325Z,61.96
